Wetterdaten: Woche 06.05.13 - 12.05.13 (KW19)
Datum Zeit Temp. A. Feuchte A. Luftdruck Regen Wind Richtung Taupunkt Windchill Windben
06.05.2013 00:00 14,6 C 81 % 1020,5 hPa 0,0 l/m 0,0 km/h N 11,3 C 14,6 C 0,0 km/h
06.05.2013 01:00 14,3 C 83 % 1020,2 hPa 0,0 l/m 0,1 km/h N 11,5 C 14,3 C 2,4 km/h
06.05.2013 02:00 14,1 C 83 % 1020,0 hPa 0,0 l/m 0,0 km/h N 11,3 C 14,1 C 0,0 km/h
06.05.2013 03:00 14,0 C 83 % 1019,4 hPa 0,0 l/m 0,0 km/h N 11,1 C 14,0 C 0,0 km/h
06.05.2013 04:00 14,0 C 82 % 1019,3 hPa 0,0 l/m 0,0 km/h N 11,0 C 14,0 C 0,0 km/h
06.05.2013 05:00 13,9 C 82 % 1019,0 hPa 0,0 l/m 0,0 km/h N 10,9 C 13,9 C 0,0 km/h
06.05.2013 06:00 14,0 C 82 % 1019,0 hPa 0,0 l/m 0,0 km/h N 10,9 C 14,0 C 0,0 km/h
06.05.2013 07:00 14,8 C 81 % 1019,2 hPa 0,0 l/m 0,0 km/h N 11,6 C 14,8 C 0,4 km/h
06.05.2013 08:00 15,5 C 83 % 1019,3 hPa 0,0 l/m 0,2 km/h N 12,6 C 15,5 C 2,0 km/h
06.05.2013 09:00 16,6 C 82 % 1019,4 hPa 0,0 l/m 0,8 km/h N 13,5 C 16,6 C 6,0 km/h
06.05.2013 10:00 17,5 C 80 % 1019,4 hPa 0,0 l/m 0,6 km/h N 14,0 C 17,5 C 4,8 km/h
06.05.2013 11:00 18,5 C 79 % 1019,1 hPa 0,0 l/m 0,8 km/h N 14,8 C 18,5 C 6,0 km/h
06.05.2013 12:00 20,3 C 75 % 1018,5 hPa 0,0 l/m 1,5 km/h N 15,6 C 20,3 C 8,4 km/h
06.05.2013 13:00 21,0 C 70 % 1017,9 hPa 0,0 l/m 0,9 km/h N 15,2 C 21,0 C 6,4 km/h
06.05.2013 14:00 21,1 C 65 % 1017,6 hPa 0,0 l/m 6,9 km/h N 14,2 C 20,8 C 19,7 km/h
06.05.2013 15:00 21,6 C 66 % 1016,8 hPa 0,0 l/m 3,0 km/h N 14,8 C 21,6 C 14,1 km/h
06.05.2013 16:00 21,3 C 67 % 1016,3 hPa 0,0 l/m 2,4 km/h N 14,8 C 21,3 C 10,9 km/h
06.05.2013 17:00 21,0 C 66 % 1015,9 hPa 0,0 l/m 0,8 km/h N 14,4 C 21,0 C 8,0 km/h
06.05.2013 18:00 20,2 C 69 % 1015,8 hPa 0,0 l/m 1,5 km/h N 14,3 C 20,2 C 8,9 km/h
06.05.2013 19:00 19,8 C 70 % 1015,7 hPa 0,0 l/m 1,9 km/h N 14,1 C 19,8 C 8,5 km/h
06.05.2013 20:00 18,8 C 74 % 1015,8 hPa 0,0 l/m 0,0 km/h N 14,0 C 18,8 C 0,8 km/h
06.05.2013 21:00 17,1 C 78 % 1015,8 hPa 0,0 l/m 0,0 km/h N 13,3 C 17,1 C 0,4 km/h
06.05.2013 22:00 16,1 C 82 % 1015,5 hPa 0,0 l/m 0,0 km/h N 13,0 C 16,1 C 0,4 km/h
06.05.2013 23:00 16,4 C 82 % 1015,5 hPa 0,0 l/m 0,1 km/h N 13,3 C 16,4 C 2,8 km/h
07.05.2013 00:00 16,1 C 82 % 1015,3 hPa 0,0 l/m 0,0 km/h N 13,1 C 16,1 C 0,0 km/h
07.05.2013 01:00 15,8 C 81 % 1014,9 hPa 0,5 l/m 0,0 km/h N 12,5 C 15,8 C 0,4 km/h
07.05.2013 02:00 16,1 C 79 % 1014,8 hPa 2,9 l/m 0,1 km/h N 12,5 C 16,1 C 2,0 km/h
07.05.2013 03:00 16,2 C 78 % 1014,9 hPa 0,0 l/m 0,0 km/h N 12,4 C 16,2 C 0,0 km/h
07.05.2013 04:00 16,1 C 78 % 1014,5 hPa 0,0 l/m 0,0 km/h N 12,3 C 16,1 C 0,0 km/h
07.05.2013 05:00 16,0 C 78 % 1014,4 hPa 0,5 l/m 0,0 km/h N 12,1 C 16,0 C 0,0 km/h
07.05.2013 06:00 15,7 C 77 % 1014,6 hPa 0,0 l/m 0,0 km/h N 11,7 C 15,7 C 0,0 km/h
07.05.2013 07:00 16,1 C 76 % 1015,2 hPa 0,0 l/m 0,1 km/h N 11,9 C 16,1 C 2,0 km/h
07.05.2013 08:00 16,7 C 76 % 1015,6 hPa 0,0 l/m 0,1 km/h N 12,3 C 16,7 C 3,6 km/h
07.05.2013 09:00 16,4 C 77 % 1015,9 hPa 0,0 l/m 1,1 km/h N 12,3 C 16,4 C 8,0 km/h
07.05.2013 10:00 18,3 C 80 % 1015,5 hPa 0,0 l/m 2,3 km/h N 14,7 C 18,3 C 10,9 km/h
07.05.2013 11:00 19,8 C 74 % 1015,5 hPa 0,0 l/m 4,6 km/h N 15,1 C 19,8 C 15,7 km/h
07.05.2013 12:00 20,8 C 72 % 1015,3 hPa 0,0 l/m 4,8 km/h N 15,5 C 20,7 C 17,7 km/h
07.05.2013 13:00 20,7 C 72 % 1015,2 hPa 0,0 l/m 3,4 km/h N 15,5 C 20,7 C 12,1 km/h
07.05.2013 14:00 22,0 C 70 % 1014,8 hPa 0,0 l/m 3,4 km/h N 16,2 C 22,0 C 14,5 km/h
07.05.2013 15:00 21,0 C 76 % 1014,4 hPa 0,5 l/m 2,6 km/h N 16,6 C 21,0 C 11,3 km/h
07.05.2013 16:00 18,2 C 82 % 1014,3 hPa 4,2 l/m 1,8 km/h N 15,0 C 18,2 C 7,3 km/h
07.05.2013 17:00 18,5 C 82 % 1013,8 hPa 0,0 l/m 0,3 km/h N 15,4 C 18,5 C 3,6 km/h
07.05.2013 18:00 19,7 C 81 % 1013,5 hPa 0,0 l/m 1,0 km/h N 16,2 C 19,7 C 9,2 km/h
07.05.2013 19:00 18,5 C 82 % 1013,8 hPa 0,0 l/m 0,1 km/h N 15,3 C 18,5 C 2,4 km/h
07.05.2013 20:00 17,7 C 83 % 1014,4 hPa 0,0 l/m 0,0 km/h N 14,7 C 17,7 C 0,4 km/h
07.05.2013 21:00 17,1 C 81 % 1014,7 hPa 0,0 l/m 0,0 km/h N 13,8 C 17,1 C 0,0 km/h
07.05.2013 22:00 16,6 C 81 % 1014,7 hPa 0,0 l/m 0,0 km/h N 13,3 C 16,6 C 0,0 km/h
07.05.2013 23:00 15,7 C 80 % 1014,5 hPa 0,0 l/m 0,0 km/h N 12,3 C 15,7 C 0,0 km/h
08.05.2013 00:00 14,7 C 80 % 1014,5 hPa 0,0 l/m 0,0 km/h N 11,3 C 14,7 C 0,0 km/h
08.05.2013 01:00 14,1 C 80 % 1014,5 hPa 0,0 l/m 0,0 km/h N 10,6 C 14,1 C 0,0 km/h
08.05.2013 02:00 14,5 C 78 % 1014,3 hPa 0,0 l/m 0,0 km/h N 10,6 C 14,5 C 0,0 km/h
08.05.2013 03:00 14,5 C 77 % 1014,3 hPa 0,0 l/m 0,0 km/h N 10,5 C 14,5 C 0,0 km/h
08.05.2013 04:00 14,4 C 77 % 1014,5 hPa 0,0 l/m 0,0 km/h N 10,3 C 14,4 C 0,0 km/h
08.05.2013 05:00 14,8 C 75 % 1014,5 hPa 0,0 l/m 0,0 km/h N 10,4 C 14,8 C 0,0 km/h
08.05.2013 06:00 15,2 C 75 % 1014,9 hPa 0,0 l/m 0,0 km/h N 10,7 C 15,2 C 0,4 km/h
08.05.2013 07:00 15,6 C 74 % 1015,2 hPa 0,0 l/m 0,0 km/h N 11,1 C 15,6 C 0,4 km/h
08.05.2013 08:00 16,4 C 74 % 1015,5 hPa 0,0 l/m 0,0 km/h N 11,7 C 16,4 C 1,2 km/h
08.05.2013 09:00 16,6 C 75 % 1016,1 hPa 0,0 l/m 0,7 km/h N 12,1 C 16,6 C 5,2 km/h
08.05.2013 10:00 17,5 C 79 % 1016,2 hPa 0,0 l/m 0,9 km/h N 13,8 C 17,5 C 5,2 km/h
08.05.2013 11:00 19,0 C 77 % 1016,1 hPa 0,0 l/m 2,5 km/h N 14,9 C 19,0 C 10,1 km/h
08.05.2013 12:00 21,3 C 68 % 1015,7 hPa 0,0 l/m 1,7 km/h N 15,2 C 21,3 C 11,3 km/h
08.05.2013 13:00 22,6 C 64 % 1015,3 hPa 0,0 l/m 2,7 km/h N 15,3 C 22,6 C 13,7 km/h
08.05.2013 14:00 23,3 C 58 % 1014,8 hPa 0,0 l/m 3,4 km/h N 14,5 C 23,3 C 14,1 km/h
08.05.2013 15:00 23,4 C 57 % 1014,2 hPa 0,0 l/m 4,1 km/h N 14,3 C 23,4 C 18,5 km/h
08.05.2013 16:00 22,8 C 67 % 1013,8 hPa 0,0 l/m 3,1 km/h N 16,2 C 22,8 C 12,9 km/h
08.05.2013 17:00 22,2 C 64 % 1013,7 hPa 0,0 l/m 4,9 km/h N 15,1 C 22,2 C 16,9 km/h
08.05.2013 18:00 22,4 C 64 % 1013,5 hPa 0,0 l/m 3,7 km/h N 15,2 C 22,4 C 13,3 km/h
08.05.2013 19:00 22,2 C 65 % 1013,8 hPa 0,0 l/m 1,5 km/h N 15,2 C 22,2 C 9,3 km/h
08.05.2013 20:00 20,7 C 65 % 1014,2 hPa 0,0 l/m 1,0 km/h N 13,9 C 20,7 C 6,0 km/h
08.05.2013 21:00 18,1 C 73 % 1014,8 hPa 0,0 l/m 0,0 km/h N 13,1 C 18,1 C 0,0 km/h
08.05.2013 22:00 16,0 C 80 % 1015,0 hPa 0,0 l/m 0,0 km/h N 12,5 C 16,0 C 0,0 km/h
08.05.2013 23:00 14,7 C 83 % 1015,1 hPa 0,0 l/m 0,0 km/h N 11,8 C 14,7 C 0,0 km/h
09.05.2013 00:00 13,9 C 83 % 1015,0 hPa 0,0 l/m 0,0 km/h N 10,9 C 13,9 C 0,0 km/h
09.05.2013 01:00 13,2 C 82 % 1014,9 hPa 0,0 l/m 0,0 km/h N 10,2 C 13,2 C 0,0 km/h
09.05.2013 02:00 12,6 C 81 % 1014,6 hPa 0,0 l/m 0,0 km/h N 9,4 C 12,6 C 0,0 km/h
09.05.2013 03:00 12,0 C 81 % 1014,7 hPa 0,0 l/m 0,0 km/h N 8,8 C 12,0 C 0,0 km/h
09.05.2013 04:00 11,5 C 80 % 1014,8 hPa 0,0 l/m 0,0 km/h N 8,2 C 11,5 C 0,0 km/h
09.05.2013 05:00 11,1 C 79 % 1015,0 hPa 0,0 l/m 0,0 km/h N 7,6 C 11,1 C 0,0 km/h
09.05.2013 06:00 11,6 C 77 % 1014,9 hPa 0,0 l/m 0,6 km/h N 7,7 C 11,6 C 2,4 km/h
09.05.2013 07:00 15,0 C 75 % 1015,0 hPa 0,0 l/m 2,1 km/h N 10,7 C 15,0 C 10,9 km/h
09.05.2013 08:00 17,1 C 80 % 1015,3 hPa 0,0 l/m 5,6 km/h N 13,6 C 17,1 C 14,9 km/h
09.05.2013 09:00 20,3 C 71 % 1015,5 hPa 0,0 l/m 5,1 km/h N 14,7 C 20,3 C 13,7 km/h
09.05.2013 10:00 22,5 C 68 % 1015,5 hPa 0,0 l/m 5,4 km/h N 16,3 C 22,5 C 15,7 km/h
09.05.2013 11:00 24,3 C 61 % 1015,2 hPa 0,0 l/m 5,3 km/h N 16,2 C 24,3 C 16,1 km/h
09.05.2013 12:00 25,5 C 54 % 1014,8 hPa 0,0 l/m 7,9 km/h N 15,3 C 25,1 C 22,1 km/h
09.05.2013 13:00 25,6 C 51 % 1014,6 hPa 0,0 l/m 10,0 km/h N 14,5 C 24,9 C 25,0 km/h
09.05.2013 14:00 25,7 C 48 % 1014,4 hPa 0,0 l/m 10,6 km/h N 13,9 C 24,8 C 26,1 km/h
09.05.2013 15:00 25,5 C 46 % 1014,1 hPa 0,0 l/m 12,3 km/h N 13,0 C 24,3 C 27,8 km/h
09.05.2013 16:00 24,9 C 48 % 1013,7 hPa 0,0 l/m 11,9 km/h N 13,1 C 23,7 C 27,8 km/h
09.05.2013 17:00 24,4 C 48 % 1013,4 hPa 0,0 l/m 10,9 km/h N 12,5 C 23,4 C 26,1 km/h
09.05.2013 18:00 23,9 C 48 % 1012,9 hPa 0,0 l/m 10,1 km/h N 12,1 C 22,9 C 25,8 km/h
09.05.2013 19:00 22,8 C 51 % 1012,8 hPa 0,0 l/m 7,2 km/h N 12,0 C 22,6 C 20,1 km/h
09.05.2013 20:00 21,3 C 57 % 1012,8 hPa 0,0 l/m 4,3 km/h N 12,4 C 21,3 C 12,5 km/h
09.05.2013 21:00 19,6 C 64 % 1013,2 hPa 0,0 l/m 1,0 km/h N 12,7 C 19,6 C 4,8 km/h
09.05.2013 22:00 18,4 C 70 % 1013,1 hPa 0,0 l/m 0,7 km/h N 12,8 C 18,4 C 5,2 km/h
09.05.2013 23:00 17,6 C 73 % 1012,8 hPa 0,0 l/m 1,8 km/h N 12,7 C 17,6 C 9,3 km/h
10.05.2013 00:00 17,5 C 67 % 1012,6 hPa 0,0 l/m 4,1 km/h N 11,2 C 17,5 C 11,7 km/h
10.05.2013 01:00 16,9 C 66 % 1012,3 hPa 0,0 l/m 1,0 km/h N 10,6 C 16,9 C 6,0 km/h
10.05.2013 02:00 15,3 C 71 % 1011,8 hPa 0,0 l/m 0,0 km/h N 10,0 C 15,3 C 0,8 km/h
10.05.2013 03:00 14,3 C 74 % 1011,6 hPa 0,0 l/m 1,4 km/h N 9,6 C 14,3 C 4,4 km/h
10.05.2013 04:00 14,5 C 71 % 1011,1 hPa 0,0 l/m 0,3 km/h N 9,4 C 14,5 C 2,4 km/h
10.05.2013 05:00 13,3 C 76 % 1010,9 hPa 0,0 l/m 0,1 km/h N 9,1 C 13,3 C 2,4 km/h
10.05.2013 06:00 12,7 C 80 % 1011,3 hPa 0,0 l/m 0,0 km/h N 9,3 C 12,7 C 0,4 km/h
10.05.2013 07:00 14,0 C 79 % 1011,4 hPa 0,0 l/m 1,0 km/h N 10,4 C 14,0 C 5,3 km/h
10.05.2013 08:00 17,9 C 65 % 1011,3 hPa 0,0 l/m 4,8 km/h N 11,2 C 17,9 C 15,3 km/h
10.05.2013 09:00 20,0 C 58 % 1011,1 hPa 0,0 l/m 9,1 km/h N 11,4 C 19,1 C 23,3 km/h
10.05.2013 10:00 21,6 C 52 % 1010,9 hPa 0,0 l/m 11,0 km/h N 11,4 C 20,1 C 25,7 km/h
10.05.2013 11:00 22,5 C 50 % 1010,9 hPa 0,0 l/m 11,0 km/h N 11,4 C 21,1 C 26,1 km/h
10.05.2013 12:00 23,0 C 50 % 1010,3 hPa 0,0 l/m 10,9 km/h N 12,1 C 21,7 C 26,2 km/h
10.05.2013 13:00 24,1 C 50 % 1010,0 hPa 0,0 l/m 6,7 km/h N 13,0 C 23,9 C 21,7 km/h
10.05.2013 14:00 24,3 C 48 % 1009,7 hPa 0,0 l/m 6,1 km/h N 12,6 C 24,2 C 19,3 km/h
10.05.2013 15:00 24,4 C 52 % 1009,2 hPa 0,0 l/m 3,0 km/h N 13,9 C 24,4 C 14,5 km/h
10.05.2013 16:00 21,6 C 61 % 1010,0 hPa 0,0 l/m 7,2 km/h N 13,6 C 20,7 C 23,3 km/h
10.05.2013 17:00 17,5 C 74 % 1010,8 hPa 0,0 l/m 13,3 km/h N 12,7 C 14,8 C 39,0 km/h
10.05.2013 18:00 16,2 C 77 % 1011,2 hPa 0,0 l/m 9,1 km/h N 12,2 C 14,9 C 28,2 km/h
10.05.2013 19:00 14,9 C 81 % 1011,7 hPa 3,4 l/m 14,5 km/h N 11,7 C 11,2 C 34,6 km/h
10.05.2013 20:00 14,1 C 83 % 1012,8 hPa 1,6 l/m 10,3 km/h N 11,2 C 12,2 C 25,4 km/h
10.05.2013 21:00 13,7 C 83 % 1013,9 hPa 1,8 l/m 6,5 km/h N 10,8 C 13,2 C 20,9 km/h
10.05.2013 22:00 13,5 C 83 % 1014,5 hPa 1,8 l/m 3,9 km/h N 10,6 C 13,5 C 14,5 km/h
10.05.2013 23:00 13,2 C 83 % 1013,9 hPa 0,5 l/m 10,8 km/h N 10,4 C 10,8 C 29,8 km/h
11.05.2013 00:00 13,2 C 83 % 1014,6 hPa 0,3 l/m 4,6 km/h N 10,4 C 13,2 C 16,1 km/h
11.05.2013 01:00 12,6 C 83 % 1014,7 hPa 0,0 l/m 6,3 km/h N 9,9 C 12,6 C 17,7 km/h
11.05.2013 02:00 12,1 C 84 % 1014,3 hPa 0,3 l/m 8,2 km/h N 9,4 C 10,9 C 21,3 km/h
11.05.2013 03:00 12,1 C 83 % 1013,7 hPa 0,0 l/m 10,0 km/h N 9,3 C 10,0 C 23,3 km/h
11.05.2013 04:00 12,3 C 83 % 1013,3 hPa 0,0 l/m 8,9 km/h N 9,4 C 10,8 C 21,7 km/h
11.05.2013 05:00 12,5 C 83 % 1013,0 hPa 0,0 l/m 8,6 km/h N 9,6 C 11,1 C 21,7 km/h
11.05.2013 06:00 12,6 C 82 % 1012,7 hPa 0,0 l/m 9,8 km/h N 9,7 C 10,6 C 25,3 km/h
11.05.2013 07:00 12,6 C 83 % 1013,0 hPa 0,0 l/m 7,9 km/h N 9,8 C 11,7 C 22,1 km/h
11.05.2013 08:00 12,6 C 83 % 1013,1 hPa 0,0 l/m 8,5 km/h N 9,8 C 11,4 C 20,5 km/h
11.05.2013 09:00 13,6 C 81 % 1012,7 hPa 0,0 l/m 9,4 km/h N 10,3 C 11,9 C 23,7 km/h
11.05.2013 10:00 13,3 C 80 % 1012,7 hPa 0,0 l/m 8,3 km/h N 9,9 C 12,2 C 22,9 km/h
11.05.2013 11:00 13,2 C 81 % 1012,5 hPa 0,8 l/m 7,9 km/h N 10,1 C 12,3 C 20,9 km/h
11.05.2013 12:00 12,9 C 83 % 1012,5 hPa 1,0 l/m 8,5 km/h N 10,0 C 11,6 C 22,9 km/h
11.05.2013 13:00 12,9 C 83 % 1012,4 hPa 1,3 l/m 7,8 km/h N 10,1 C 12,1 C 20,1 km/h
11.05.2013 14:00 12,8 C 83 % 1012,2 hPa 0,8 l/m 9,2 km/h N 10,1 C 11,2 C 23,3 km/h
11.05.2013 15:00 12,8 C 84 % 1012,0 hPa 0,3 l/m 8,6 km/h N 10,1 C 11,4 C 22,9 km/h
11.05.2013 16:00 12,8 C 83 % 1011,9 hPa 0,5 l/m 8,6 km/h N 10,0 C 11,5 C 22,1 km/h
11.05.2013 17:00 12,6 C 83 % 1011,8 hPa 1,0 l/m 7,6 km/h N 9,7 C 11,9 C 20,9 km/h
11.05.2013 18:00 12,5 C 82 % 1011,7 hPa 0,3 l/m 5,1 km/h N 9,6 C 12,5 C 16,1 km/h
11.05.2013 19:00 12,6 C 83 % 1011,9 hPa 0,3 l/m 7,8 km/h N 9,8 C 11,6 C 22,1 km/h
11.05.2013 20:00 12,6 C 84 % 1012,3 hPa 0,0 l/m 9,3 km/h N 9,9 C 10,9 C 22,9 km/h
11.05.2013 21:00 12,6 C 83 % 1013,0 hPa 0,0 l/m 6,9 km/h N 9,8 C 12,2 C 19,7 km/h
11.05.2013 22:00 12,2 C 84 % 1013,3 hPa 0,3 l/m 8,6 km/h N 9,5 C 10,8 C 20,1 km/h
11.05.2013 23:00 11,9 C 84 % 1013,5 hPa 0,0 l/m 10,3 km/h N 9,3 C 9,6 C 24,5 km/h
12.05.2013 00:00 11,8 C 84 % 1013,4 hPa 0,0 l/m 9,1 km/h N 9,1 C 10,0 C 21,7 km/h
12.05.2013 01:00 11,5 C 84 % 1013,3 hPa 0,0 l/m 9,4 km/h N 8,9 C 9,7 C 23,3 km/h
12.05.2013 02:00 11,3 C 84 % 1013,0 hPa 0,0 l/m 9,2 km/h N 8,7 C 9,5 C 22,5 km/h
12.05.2013 03:00 11,4 C 84 % 1012,6 hPa 0,0 l/m 9,5 km/h N 8,7 C 9,5 C 24,1 km/h
12.05.2013 04:00 11,4 C 83 % 1012,3 hPa 0,0 l/m 10,8 km/h N 8,5 C 8,8 C 25,3 km/h
12.05.2013 05:00 11,3 C 83 % 1012,3 hPa 0,0 l/m 8,8 km/h N 8,4 C 9,7 C 21,7 km/h
12.05.2013 06:00 11,4 C 82 % 1012,3 hPa 0,0 l/m 10,7 km/h N 8,5 C 8,9 C 24,9 km/h
12.05.2013 07:00 11,8 C 81 % 1012,4 hPa 0,0 l/m 9,7 km/h N 8,6 C 9,9 C 22,5 km/h
12.05.2013 08:00 12,1 C 80 % 1012,6 hPa 0,3 l/m 11,9 km/h N 8,7 C 9,0 C 27,8 km/h
12.05.2013 09:00 12,3 C 80 % 1012,7 hPa 0,0 l/m 10,9 km/h N 8,9 C 9,7 C 26,6 km/h
12.05.2013 10:00 13,3 C 77 % 1012,3 hPa 0,0 l/m 11,9 km/h N 9,4 C 10,4 C 28,6 km/h
12.05.2013 11:00 15,1 C 71 % 1012,1 hPa 0,0 l/m 13,2 km/h N 9,9 C 12,0 C 31,4 km/h
12.05.2013 12:00 15,0 C 70 % 1011,8 hPa 0,0 l/m 8,0 km/h N 9,5 C 14,1 C 24,1 km/h
12.05.2013 13:00 15,1 C 68 % 1011,5 hPa 0,0 l/m 9,0 km/h N 9,1 C 13,7 C 24,5 km/h
12.05.2013 14:00 15,6 C 69 % 1011,2 hPa 0,5 l/m 7,3 km/h N 10,0 C 14,9 C 22,1 km/h
12.05.2013 15:00 15,2 C 76 % 1010,9 hPa 0,0 l/m 4,6 km/h N 10,9 C 15,2 C 13,3 km/h
12.05.2013 16:00 14,6 C 75 % 1010,8 hPa 0,0 l/m 3,8 km/h N 10,2 C 14,6 C 13,7 km/h
12.05.2013 17:00 14,8 C 69 % 1011,0 hPa 0,0 l/m 6,8 km/h N 9,1 C 14,2 C 21,7 km/h
12.05.2013 18:00 15,1 C 62 % 1011,2 hPa 0,0 l/m 11,7 km/h N 7,8 C 12,7 C 32,6 km/h
12.05.2013 19:00 12,9 C 69 % 1012,0 hPa 0,3 l/m 19,4 km/h N 7,3 C 7,1 C 45,8 km/h
12.05.2013 20:00 11,8 C 72 % 1012,8 hPa 0,0 l/m 17,9 km/h N 7,0 C 6,4 C 40,6 km/h
12.05.2013 21:00 11,4 C 75 % 1014,2 hPa 0,0 l/m 14,5 km/h N 7,1 C 7,1 C 30,2 km/h
12.05.2013 22:00 11,3 C 73 % 1014,9 hPa 0,0 l/m 15,0 km/h N 6,7 C 6,7 C 34,6 km/h
12.05.2013 23:00 11,2 C 72 % 1015,2 hPa 0,0 l/m 15,9 km/h N 6,3 C 6,3 C 33,4 km/h
Min-Datum _ 09.05.13 09.05.13 10.05.13 - 06.05.13 - 12.05.13 12.05.13 06.05.13
_ Min-Zeit 06:15 15:00 15:30 - 00:00 - 23:45 20:30 00:00
Minimum _ 10,9 C 45 % 1009,0 hPa - 0,0 km/h - 6,2 C 5,7 C 0,0 km/h
Max-Datum _ 09.05.13 11.05.13 06.05.13 07.05.13 12.05.13 - 08.05.13 09.05.13 12.05.13
_ Max-Zeit 14:00 01:45 00:00 16:15 19:15 - 16:15 13:00 19:30
Maximum _ 26,0 C 84 % 1020,6 hPa 4,2 l/m 20,7 km/h
N
- 17,1 C 25,4 C 56,3 km/h
N
Durchschnitt _ 16,5 C 74 % 1014,1 hPa #25,7 l/m 4,7 km/h N 11,7 C 15,8 C 13,4 km/h